createdAt,value
2019-03-12T00:00:16.859Z,1007.19
2019-03-12T00:01:16.827Z,1007.15
2019-03-12T00:02:16.816Z,1007.14
2019-03-12T00:03:16.804Z,1007.13
2019-03-12T00:04:16.793Z,1007.15
2019-03-12T00:05:16.804Z,1007.16
2019-03-12T00:06:16.770Z,1007.23
2019-03-12T00:07:16.761Z,1007.20
2019-03-12T00:08:16.748Z,1007.23
2019-03-12T00:09:16.738Z,1007.20
2019-03-12T00:10:16.750Z,1007.20
2019-03-12T00:11:16.715Z,1007.24
2019-03-12T00:12:16.704Z,1007.22
2019-03-12T00:13:16.693Z,1007.20
2019-03-12T00:14:16.681Z,1007.21
2019-03-12T00:15:16.692Z,1007.20
2019-03-12T00:16:16.664Z,1007.22
2019-03-12T00:17:16.650Z,1007.17
2019-03-12T00:18:16.640Z,1007.21
2019-03-12T00:19:16.626Z,1007.25
2019-03-12T00:20:16.635Z,1007.25
2019-03-12T00:21:16.604Z,1007.29
2019-03-12T00:22:16.592Z,1007.29
2019-03-12T00:23:16.580Z,1007.30
2019-03-12T00:24:16.569Z,1007.30
2019-03-12T00:25:16.580Z,1007.28
2019-03-12T00:26:16.550Z,1007.25
2019-03-12T00:27:16.537Z,1007.29
2019-03-12T00:28:16.533Z,1007.27
2019-03-12T00:29:16.514Z,1007.19
2019-03-12T00:30:16.525Z,1007.16
2019-03-12T00:31:16.498Z,1007.15
2019-03-12T00:32:16.482Z,1007.13
2019-03-12T00:33:16.468Z,1007.14
2019-03-12T00:34:16.477Z,1007.14
2019-03-12T00:35:16.467Z,1007.19
2019-03-12T00:36:16.434Z,1007.23
2019-03-12T00:37:16.426Z,1007.23
2019-03-12T00:38:16.419Z,1007.24
2019-03-12T00:39:16.400Z,1007.18
2019-03-12T00:40:16.430Z,1007.13
2019-03-12T00:41:16.379Z,1007.17
2019-03-12T00:42:16.368Z,1007.17
2019-03-12T00:43:16.356Z,1007.14
2019-03-12T00:44:16.346Z,1007.13
2019-03-12T00:45:16.357Z,1007.16
2019-03-12T00:46:16.322Z,1007.20
2019-03-12T00:47:16.328Z,1007.16
2019-03-12T00:48:16.302Z,1007.14
2019-03-12T00:49:16.288Z,1007.06
2019-03-12T00:50:16.298Z,1006.99
2019-03-12T00:51:16.266Z,1007.02
2019-03-12T00:52:16.255Z,1007.04
2019-03-12T00:53:16.242Z,1007.04
2019-03-12T00:54:16.244Z,1007.04
2019-03-12T00:55:16.243Z,1007.06
2019-03-12T00:56:16.231Z,1007.03
2019-03-12T00:57:16.198Z,1007.07
2019-03-12T00:58:16.191Z,1007.03
2019-03-12T00:59:16.176Z,1007.01
2019-03-12T01:00:16.165Z,1007.00
2019-03-12T01:01:16.175Z,1007.02
2019-03-12T01:02:16.141Z,1007.03
2019-03-12T01:03:16.131Z,1007.01
2019-03-12T01:04:16.119Z,1007.00
2019-03-12T01:05:16.108Z,1007.03
2019-03-12T01:06:16.122Z,1007.06
2019-03-12T01:07:16.086Z,1006.99
2019-03-12T01:08:16.074Z,1007.03
2019-03-12T01:09:16.063Z,1006.97
2019-03-12T01:10:16.054Z,1006.96
2019-03-12T01:11:16.064Z,1006.94
2019-03-12T01:12:16.029Z,1006.96
2019-03-12T01:13:16.019Z,1007.02
2019-03-12T01:14:16.007Z,1007.01
2019-03-12T01:15:15.997Z,1007.00
2019-03-12T01:16:16.009Z,1006.96
2019-03-12T01:17:15.974Z,1006.98
2019-03-12T01:18:15.967Z,1006.97
2019-03-12T01:19:15.958Z,1006.94
2019-03-12T01:20:15.943Z,1006.95
2019-03-12T01:21:15.952Z,1006.91
2019-03-12T01:22:15.921Z,1006.94
2019-03-12T01:23:15.911Z,1006.89
2019-03-12T01:24:15.902Z,1006.87
2019-03-12T01:25:15.885Z,1006.88
2019-03-12T01:26:15.895Z,1006.87
2019-03-12T01:27:15.899Z,1006.89
2019-03-12T01:28:15.851Z,1006.88
2019-03-12T01:29:15.840Z,1006.88
2019-03-12T01:30:15.829Z,1006.87
2019-03-12T01:31:15.841Z,1006.84
2019-03-12T01:32:15.806Z,1006.81
2019-03-12T01:33:15.797Z,1006.80
2019-03-12T01:34:15.786Z,1006.78
2019-03-12T01:35:15.773Z,1006.75
2019-03-12T01:36:15.785Z,1006.72
2019-03-12T01:37:15.751Z,1006.68
2019-03-12T01:38:15.740Z,1006.70
2019-03-12T01:39:15.729Z,1006.77
2019-03-12T01:40:15.716Z,1006.65
2019-03-12T01:41:15.728Z,1006.65
2019-03-12T01:42:15.694Z,1006.63
2019-03-12T01:43:15.685Z,1006.70
2019-03-12T01:44:15.672Z,1006.66
2019-03-12T01:45:15.662Z,1006.64
2019-03-12T01:46:15.672Z,1006.64
2019-03-12T01:47:15.659Z,1006.63
2019-03-12T01:48:15.627Z,1006.60
2019-03-12T01:49:15.616Z,1006.55
2019-03-12T01:50:15.604Z,1006.56
2019-03-12T01:51:15.593Z,1006.58
2019-03-12T01:52:15.605Z,1006.52
2019-03-12T01:53:15.570Z,1006.57
2019-03-12T01:54:15.560Z,1006.54
2019-03-12T01:55:15.547Z,1006.56
2019-03-12T01:56:15.550Z,1006.52
2019-03-12T01:57:15.547Z,1006.52
2019-03-12T01:58:15.521Z,1006.55
2019-03-12T01:59:15.503Z,1006.52
2019-03-12T02:00:15.491Z,1006.54
2019-03-12T02:01:15.480Z,1006.51
2019-03-12T02:02:15.490Z,1006.48
2019-03-12T02:03:15.458Z,1006.52
2019-03-12T02:04:15.450Z,1006.51
2019-03-12T02:05:15.499Z,1006.52
2019-03-12T02:06:15.425Z,1006.48
2019-03-12T02:07:15.436Z,1006.45
2019-03-12T02:08:15.405Z,1006.40
2019-03-12T02:09:15.392Z,1006.41
2019-03-12T02:10:15.382Z,1006.40
2019-03-12T02:11:15.369Z,1006.36
2019-03-12T02:12:15.386Z,1006.35
2019-03-12T02:13:15.345Z,1006.38
2019-03-12T02:14:15.337Z,1006.37
2019-03-12T02:15:15.324Z,1006.37
2019-03-12T02:16:15.314Z,1006.33
2019-03-12T02:17:15.401Z,1006.35
2019-03-12T02:18:15.289Z,1006.35
2019-03-12T02:19:15.278Z,1006.39
2019-03-12T02:20:15.267Z,1006.37
2019-03-12T02:21:15.346Z,1006.35
2019-03-12T02:22:15.266Z,1006.39
2019-03-12T02:23:15.233Z,1006.34
2019-03-12T02:24:15.221Z,1006.32
2019-03-12T02:25:15.211Z,1006.28
2019-03-12T02:26:15.200Z,1006.27
2019-03-12T02:27:15.210Z,1006.28
2019-03-12T02:28:15.178Z,1006.27
2019-03-12T02:29:15.192Z,1006.21
2019-03-12T02:30:15.156Z,1006.23
2019-03-12T02:31:15.242Z,1006.26
2019-03-12T02:32:15.158Z,1006.24
2019-03-12T02:33:15.122Z,1006.21
2019-03-12T02:34:15.111Z,1006.22
2019-03-12T02:35:15.131Z,1006.20
2019-03-12T02:36:15.095Z,1006.17
2019-03-12T02:37:15.114Z,1006.15
2019-03-12T02:38:15.087Z,1006.14
2019-03-12T02:39:15.055Z,1006.09
2019-03-12T02:40:15.043Z,1006.09
2019-03-12T02:41:15.032Z,1006.11
2019-03-12T02:42:15.031Z,1006.08
2019-03-12T02:43:15.046Z,1006.08
2019-03-12T02:44:14.999Z,1006.04
2019-03-12T02:45:14.988Z,1006.07
2019-03-12T02:46:14.977Z,1006.10
2019-03-12T02:47:14.964Z,1006.11
2019-03-12T02:48:14.975Z,1006.11
2019-03-12T02:49:14.947Z,1006.11
2019-03-12T02:50:14.955Z,1006.10
2019-03-12T02:51:14.921Z,1006.10
2019-03-12T02:52:14.927Z,1006.15
2019-03-12T02:53:14.924Z,1006.11
2019-03-12T02:54:14.888Z,1006.17
2019-03-12T02:55:14.881Z,1006.12
2019-03-12T02:56:14.865Z,1006.12
2019-03-12T02:57:14.854Z,1006.08
2019-03-12T02:58:14.863Z,1006.07
2019-03-12T02:59:14.835Z,1006.05
2019-03-12T03:00:14.826Z,1006.08
2019-03-12T03:01:14.813Z,1006.08
2019-03-12T03:02:14.797Z,1006.10
2019-03-12T03:03:14.811Z,1006.10
2019-03-12T03:04:14.777Z,1006.07
2019-03-12T03:05:14.765Z,1006.06
2019-03-12T03:06:14.754Z,1006.07
2019-03-12T03:07:14.742Z,1006.08
2019-03-12T03:08:14.752Z,1006.06
2019-03-12T03:09:14.737Z,1006.08
2019-03-12T03:10:14.708Z,1006.05
2019-03-12T03:11:14.717Z,1006.06
2019-03-12T03:12:14.691Z,1006.08
2019-03-12T03:13:14.721Z,1006.08
2019-03-12T03:14:14.664Z,1006.10
2019-03-12T03:15:14.654Z,1006.06
2019-03-12T03:16:14.645Z,1006.08
2019-03-12T03:17:14.633Z,1006.10
2019-03-12T03:18:14.642Z,1006.10
2019-03-12T03:19:14.609Z,1006.08
2019-03-12T03:20:14.596Z,1006.06
2019-03-12T03:21:14.589Z,1006.08
2019-03-12T03:22:14.580Z,1006.07
2019-03-12T03:23:14.585Z,1006.05
2019-03-12T03:24:14.554Z,1006.08
2019-03-12T03:25:14.543Z,1006.05
2019-03-12T03:26:14.531Z,1006.00
2019-03-12T03:27:14.520Z,1005.97
2019-03-12T03:28:14.530Z,1006.00
2019-03-12T03:29:14.496Z,1005.92
2019-03-12T03:30:14.509Z,1005.94
2019-03-12T03:31:14.493Z,1005.96
2019-03-12T03:32:14.464Z,1005.97
2019-03-12T03:33:14.454Z,1005.98
2019-03-12T03:34:14.465Z,1005.99
2019-03-12T03:35:14.435Z,1005.94
2019-03-12T03:36:14.430Z,1005.89
2019-03-12T03:37:14.409Z,1005.89
2019-03-12T03:38:14.399Z,1005.84
2019-03-12T03:39:14.407Z,1005.85
2019-03-12T03:40:14.376Z,1005.85
2019-03-12T03:41:14.362Z,1005.81
2019-03-12T03:42:14.356Z,1005.79
2019-03-12T03:43:14.340Z,1005.82
2019-03-12T03:44:14.359Z,1005.78
2019-03-12T03:45:14.319Z,1005.78
2019-03-12T03:46:14.308Z,1005.78
2019-03-12T03:47:14.295Z,1005.76
2019-03-12T03:48:14.286Z,1005.76
2019-03-12T03:49:14.295Z,1005.74
2019-03-12T03:50:14.283Z,1005.70
2019-03-12T03:51:14.251Z,1005.68
2019-03-12T03:52:14.240Z,1005.66
2019-03-12T03:53:14.242Z,1005.67
2019-03-12T03:54:14.242Z,1005.61
2019-03-12T03:55:14.208Z,1005.64
2019-03-12T03:56:14.197Z,1005.62
2019-03-12T03:57:14.195Z,1005.61
2019-03-12T03:58:14.173Z,1005.59
2019-03-12T03:59:14.184Z,1005.56
2019-03-12T04:00:14.154Z,1005.59
2019-03-12T04:01:14.142Z,1005.61
2019-03-12T04:02:14.131Z,1005.59
2019-03-12T04:03:14.117Z,1005.53
2019-03-12T04:04:14.129Z,1005.57
2019-03-12T04:05:14.096Z,1005.56
2019-03-12T04:06:14.086Z,1005.56
2019-03-12T04:07:14.076Z,1005.52
2019-03-12T04:08:14.063Z,1005.50
2019-03-12T04:09:14.077Z,1005.50
2019-03-12T04:10:14.040Z,1005.46
2019-03-12T04:11:14.029Z,1005.43
2019-03-12T04:12:14.018Z,1005.44
2019-03-12T04:13:14.006Z,1005.48
2019-03-12T04:14:14.018Z,1005.41
2019-03-12T04:15:13.983Z,1005.43
2019-03-12T04:16:13.974Z,1005.41
2019-03-12T04:17:13.962Z,1005.39
2019-03-12T04:18:13.952Z,1005.39
2019-03-12T04:19:13.979Z,1005.32
2019-03-12T04:20:13.930Z,1005.34
2019-03-12T04:21:13.917Z,1005.30
2019-03-12T04:22:13.906Z,1005.31
2019-03-12T04:23:16.094Z,1005.32
2019-03-12T04:24:13.906Z,1005.31
2019-03-12T04:25:13.874Z,1005.35
2019-03-12T04:26:13.883Z,1005.28
2019-03-12T04:27:13.852Z,1005.28
2019-03-12T04:28:13.840Z,1005.24
2019-03-12T04:29:13.828Z,1005.26
2019-03-12T04:30:13.839Z,1005.25
2019-03-12T04:31:13.806Z,1005.20
2019-03-12T04:32:13.795Z,1005.20
2019-03-12T04:33:13.784Z,1005.17
2019-03-12T04:34:13.772Z,1005.19
2019-03-12T04:35:13.790Z,1005.22
2019-03-12T04:36:13.841Z,1005.19
2019-03-12T04:37:13.748Z,1005.17
2019-03-12T04:38:13.727Z,1005.14
2019-03-12T04:39:13.715Z,1005.18
2019-03-12T04:40:13.731Z,1005.21
2019-03-12T04:41:13.694Z,1005.21
2019-03-12T04:42:13.687Z,1005.17
2019-03-12T04:43:13.671Z,1005.18
2019-03-12T04:44:13.661Z,1005.18
2019-03-12T04:45:13.670Z,1005.14
2019-03-12T04:46:13.638Z,1005.10
2019-03-12T04:47:13.627Z,1005.12
2019-03-12T04:48:13.616Z,1005.07
2019-03-12T04:49:13.604Z,1005.08
2019-03-12T04:50:13.614Z,1005.06
2019-03-12T04:51:13.581Z,1005.01
2019-03-12T04:52:13.574Z,1004.99
2019-03-12T04:53:13.559Z,1004.97
2019-03-12T04:54:13.548Z,1004.95
2019-03-12T04:55:13.560Z,1004.91
2019-03-12T04:56:13.527Z,1004.93
2019-03-12T04:57:13.515Z,1004.93
2019-03-12T04:58:13.504Z,1004.87
2019-03-12T04:59:13.492Z,1004.87
2019-03-12T05:00:13.503Z,1004.86
2019-03-12T05:01:13.469Z,1004.88
2019-03-12T05:02:13.459Z,1004.85
2019-03-12T05:03:13.448Z,1004.86
2019-03-12T05:04:13.437Z,1004.80
2019-03-12T05:05:13.448Z,1004.81
2019-03-12T05:06:13.414Z,1004.73
2019-03-12T05:07:13.403Z,1004.77
2019-03-12T05:08:13.391Z,1004.73
2019-03-12T05:09:13.383Z,1004.74
2019-03-12T05:10:13.391Z,1004.71
2019-03-12T05:11:13.367Z,1004.71
2019-03-12T05:12:13.347Z,1004.70
2019-03-12T05:13:13.336Z,1004.69
2019-03-12T05:14:13.326Z,1004.70
2019-03-12T05:15:13.360Z,1004.62
2019-03-12T05:16:13.303Z,1004.63
2019-03-12T05:17:13.293Z,1004.62
2019-03-12T05:18:13.283Z,1004.60
2019-03-12T05:19:13.270Z,1004.64
2019-03-12T05:20:13.258Z,1004.61
2019-03-12T05:21:13.269Z,1004.56
2019-03-12T05:22:13.236Z,1004.55
2019-03-12T05:23:13.224Z,1004.51
2019-03-12T05:24:13.213Z,1004.47
2019-03-12T05:25:13.207Z,1004.42
2019-03-12T05:26:13.212Z,1004.44
2019-03-12T05:27:13.178Z,1004.39
2019-03-12T05:28:13.168Z,1004.40
2019-03-12T05:29:13.156Z,1004.40
2019-03-12T05:30:13.146Z,1004.39
2019-03-12T05:31:13.155Z,1004.37
2019-03-12T05:32:13.124Z,1004.36
2019-03-12T05:33:13.123Z,1004.39
2019-03-12T05:34:13.100Z,1004.30
2019-03-12T05:35:13.100Z,1004.33
2019-03-12T05:36:13.099Z,1004.35
2019-03-12T05:37:13.074Z,1004.34
2019-03-12T05:38:13.058Z,1004.36
2019-03-12T05:39:13.045Z,1004.40
2019-03-12T05:40:13.065Z,1004.36
2019-03-12T05:41:13.044Z,1004.39
2019-03-12T05:42:13.013Z,1004.37
2019-03-12T05:43:13.002Z,1004.34
2019-03-12T05:44:12.988Z,1004.35
2019-03-12T05:45:12.977Z,1004.34
2019-03-12T05:46:12.987Z,1004.30
2019-03-12T05:47:12.955Z,1004.29
2019-03-12T05:48:12.950Z,1004.33
2019-03-12T05:49:12.933Z,1004.25
2019-03-12T05:50:12.923Z,1004.23
2019-03-12T05:51:12.931Z,1004.28
2019-03-12T05:52:12.899Z,1004.22
2019-03-12T05:53:12.905Z,1004.22
2019-03-12T05:54:12.879Z,1004.20
2019-03-12T05:55:12.871Z,1004.20
2019-03-12T05:56:12.881Z,1004.25
2019-03-12T05:57:12.846Z,1004.16
2019-03-12T05:58:12.832Z,1004.19
2019-03-12T05:59:12.841Z,1004.19
2019-03-12T06:00:12.809Z,1004.17
2019-03-12T06:01:12.799Z,1004.11
2019-03-12T06:02:12.807Z,1004.11
2019-03-12T06:03:12.776Z,1004.04
2019-03-12T06:04:12.765Z,1004.07
2019-03-12T06:05:12.754Z,1004.05
2019-03-12T06:06:12.743Z,1004.02
2019-03-12T06:07:12.752Z,1004.01
2019-03-12T06:08:12.722Z,1004.05
2019-03-12T06:09:12.707Z,1004.03
2019-03-12T06:10:12.697Z,1004.02
2019-03-12T06:11:12.685Z,1003.95
2019-03-12T06:12:12.696Z,1004.00
2019-03-12T06:13:12.663Z,1003.91
2019-03-12T06:14:12.654Z,1003.91
2019-03-12T06:15:12.640Z,1003.86
2019-03-12T06:16:12.629Z,1003.91
2019-03-12T06:17:12.641Z,1003.89
2019-03-12T06:18:12.608Z,1003.84
2019-03-12T06:19:12.599Z,1003.84
2019-03-12T06:20:12.585Z,1003.84
2019-03-12T06:21:12.572Z,1003.79
2019-03-12T06:22:12.582Z,1003.78
2019-03-12T06:23:15.169Z,1003.81
2019-03-12T06:24:12.543Z,1003.75
2019-03-12T06:25:12.528Z,1003.78
2019-03-12T06:26:12.517Z,1003.78
2019-03-12T06:27:12.527Z,1003.78
2019-03-12T06:28:12.493Z,1003.77
2019-03-12T06:29:12.483Z,1003.77
2019-03-12T06:30:12.553Z,1003.73
2019-03-12T06:31:12.460Z,1003.73
2019-03-12T06:32:12.470Z,1003.74
2019-03-12T06:33:12.437Z,1003.75
2019-03-12T06:34:12.431Z,1003.73
2019-03-12T06:35:12.415Z,1003.74
2019-03-12T06:36:12.403Z,1003.71
2019-03-12T06:37:12.415Z,1003.65
2019-03-12T06:38:12.384Z,1003.67
2019-03-12T06:39:12.370Z,1003.62
2019-03-12T06:40:12.362Z,1003.64
2019-03-12T06:41:12.350Z,1003.58
2019-03-12T06:42:12.365Z,1003.57
2019-03-12T06:43:12.325Z,1003.57
2019-03-12T06:44:12.316Z,1003.59
2019-03-12T06:45:13.600Z,1003.58
2019-03-12T06:46:12.293Z,1003.53
2019-03-12T06:47:12.313Z,1003.53
2019-03-12T06:48:12.275Z,1003.46
2019-03-12T06:49:12.261Z,1003.44
2019-03-12T06:50:12.250Z,1003.47
2019-03-12T06:51:12.235Z,1003.45
2019-03-12T06:52:12.256Z,1003.44
2019-03-12T06:53:12.215Z,1003.44
2019-03-12T06:54:12.231Z,1003.42
2019-03-12T06:55:12.190Z,1003.46
2019-03-12T06:56:12.179Z,1003.39
2019-03-12T06:57:12.169Z,1003.42
2019-03-12T06:58:12.179Z,1003.40
2019-03-12T06:59:12.146Z,1003.38
2019-03-12T07:00:12.134Z,1003.35
2019-03-12T07:01:12.123Z,1003.36
2019-03-12T07:02:12.111Z,1003.34
2019-03-12T07:03:12.122Z,1003.27
2019-03-12T07:04:12.089Z,1003.29
2019-03-12T07:05:12.078Z,1003.23
2019-03-12T07:06:12.067Z,1003.25
2019-03-12T07:07:12.855Z,1003.19
2019-03-12T07:08:12.073Z,1003.15
2019-03-12T07:09:12.033Z,1003.12
2019-03-12T07:10:12.024Z,1003.13
2019-03-12T07:11:12.010Z,1003.09
2019-03-12T07:12:12.004Z,1003.07
2019-03-12T07:13:12.009Z,1003.09
2019-03-12T07:14:11.976Z,1003.09
2019-03-12T07:15:11.966Z,1003.07
2019-03-12T07:16:11.954Z,1003.04
2019-03-12T07:17:11.942Z,1003.00
2019-03-12T07:18:11.953Z,1002.98
2019-03-12T07:19:11.921Z,1002.97
2019-03-12T07:20:13.349Z,1002.95
2019-03-12T07:21:11.901Z,1002.87
2019-03-12T07:22:11.886Z,1002.84
2019-03-12T07:23:11.898Z,1002.84
2019-03-12T07:24:13.127Z,1002.84
2019-03-12T07:25:11.854Z,1002.79
2019-03-12T07:26:11.844Z,1002.78
2019-03-12T07:27:11.854Z,1002.76
2019-03-12T07:28:11.846Z,1002.75
2019-03-12T07:29:11.811Z,1002.76
2019-03-12T07:30:13.036Z,1002.70
2019-03-12T07:31:11.833Z,1002.70
2019-03-12T07:32:11.774Z,1002.61
2019-03-12T07:33:11.793Z,1002.53
2019-03-12T07:34:11.752Z,1002.54
2019-03-12T07:35:11.741Z,1002.48
2019-03-12T07:36:11.730Z,1002.57
2019-03-12T07:37:11.719Z,1002.53
2019-03-12T07:38:11.727Z,1002.51
2019-03-12T07:39:11.696Z,1002.50
2019-03-12T07:40:11.686Z,1002.50
2019-03-12T07:41:23.490Z,1002.50
2019-03-12T07:42:12.670Z,1002.47
2019-03-12T07:43:11.672Z,1002.46
2019-03-12T07:44:11.640Z,1002.44
2019-03-12T07:45:11.629Z,1002.43
2019-03-12T07:46:11.617Z,1002.41
2019-03-12T07:47:11.608Z,1002.36
2019-03-12T07:48:11.618Z,1002.36
2019-03-12T07:49:11.584Z,1002.32
2019-03-12T07:50:11.572Z,1002.33
2019-03-12T07:51:11.562Z,1002.29
2019-03-12T07:52:11.549Z,1002.28
2019-03-12T07:53:11.564Z,1002.31
2019-03-12T07:54:11.549Z,1002.26
2019-03-12T07:55:11.514Z,1002.27
2019-03-12T07:56:11.505Z,1002.24
2019-03-12T07:57:11.492Z,1002.22
2019-03-12T07:58:11.486Z,1002.24
2019-03-12T07:59:11.496Z,1002.23
2019-03-12T08:00:11.459Z,1002.25
2019-03-12T08:01:11.451Z,1002.19
2019-03-12T08:02:11.436Z,1002.18
2019-03-12T08:03:11.426Z,1002.19
2019-03-12T08:04:11.437Z,1002.16
2019-03-12T08:05:11.414Z,1002.13
2019-03-12T08:06:11.391Z,1002.14
2019-03-12T08:07:13.106Z,1002.10
2019-03-12T08:08:11.375Z,1002.10
2019-03-12T08:09:11.379Z,1002.07
2019-03-12T08:10:11.352Z,1002.12
2019-03-12T08:11:11.339Z,1002.11
2019-03-12T08:12:11.327Z,1002.10
2019-03-12T08:13:11.314Z,1002.08
2019-03-12T08:14:11.323Z,1002.08
2019-03-12T08:15:22.501Z,1002.05
2019-03-12T08:16:12.277Z,1002.05
2019-03-12T08:17:11.269Z,1002.04
2019-03-12T08:18:11.257Z,1001.96
2019-03-12T08:19:11.266Z,1001.93
2019-03-12T08:20:11.235Z,1001.93
2019-03-12T08:21:21.786Z,1001.94
2019-03-12T08:22:12.212Z,1001.98
2019-03-12T08:23:11.201Z,1001.94
2019-03-12T08:24:13.750Z,1001.92
2019-03-12T08:25:11.204Z,1001.90
2019-03-12T08:26:11.169Z,1001.77
2019-03-12T08:27:11.159Z,1001.74
2019-03-12T08:28:11.147Z,1001.65
2019-03-12T08:29:11.154Z,1001.67
2019-03-12T08:30:11.123Z,1001.70
2019-03-12T08:31:11.126Z,1001.71
2019-03-12T08:32:11.101Z,1001.69
2019-03-12T08:33:11.089Z,1001.68
2019-03-12T08:34:11.101Z,1001.66
2019-03-12T08:35:11.069Z,1001.70
2019-03-12T08:36:11.070Z,1001.66
2019-03-12T08:37:11.045Z,1001.65
2019-03-12T08:38:11.095Z,1001.63
2019-03-12T08:39:11.044Z,1001.59
2019-03-12T08:40:11.013Z,1001.58
2019-03-12T08:41:11.000Z,1001.54
2019-03-12T08:42:10.990Z,1001.56
2019-03-12T08:43:10.979Z,1001.52
2019-03-12T08:44:10.967Z,1001.55
2019-03-12T08:45:14.835Z,1001.49
2019-03-12T08:46:10.946Z,1001.45
2019-03-12T08:47:10.935Z,1001.42
2019-03-12T08:48:12.905Z,1001.40
2019-03-12T08:49:10.917Z,1001.39
2019-03-12T08:50:10.923Z,1001.33
2019-03-12T08:51:10.888Z,1001.34
2019-03-12T08:52:10.883Z,1001.30
2019-03-12T08:53:10.874Z,1001.34
2019-03-12T08:54:10.862Z,1001.30
2019-03-12T08:55:10.864Z,1001.24
2019-03-12T08:56:10.833Z,1001.23
2019-03-12T08:57:10.821Z,1001.23
2019-03-12T08:58:10.810Z,1001.17
2019-03-12T08:59:10.799Z,1001.13
2019-03-12T09:00:10.812Z,1001.16
2019-03-12T09:01:10.778Z,1001.19
2019-03-12T09:02:10.765Z,1001.18
2019-03-12T09:03:10.754Z,1001.15
2019-03-12T09:04:10.743Z,1001.15
2019-03-12T09:05:10.755Z,1001.05
2019-03-12T09:06:10.741Z,1001.06
2019-03-12T09:07:10.713Z,1000.99
2019-03-12T09:08:10.699Z,1001.00
2019-03-12T09:09:10.688Z,1000.94
2019-03-12T09:10:10.699Z,1000.97
2019-03-12T09:11:10.665Z,1000.89
2019-03-12T09:12:10.660Z,1000.86
2019-03-12T09:13:10.644Z,1000.86
2019-03-12T09:14:10.633Z,1000.83
2019-03-12T09:15:10.645Z,1000.80
2019-03-12T09:16:10.633Z,1000.78
2019-03-12T09:17:10.599Z,1000.79
2019-03-12T09:18:10.588Z,1000.71
2019-03-12T09:19:10.576Z,1000.81
2019-03-12T09:20:10.589Z,1000.75
2019-03-12T09:21:10.556Z,1000.74
2019-03-12T09:22:10.550Z,1000.67
2019-03-12T09:23:10.531Z,1000.74
2019-03-12T09:24:10.520Z,1000.73
2019-03-12T09:25:11.789Z,1000.65
2019-03-12T09:26:10.553Z,1000.63
2019-03-12T09:27:10.488Z,1000.55
2019-03-12T09:28:10.476Z,1000.57
2019-03-12T09:29:10.540Z,1000.56
2019-03-12T09:30:10.476Z,1000.56
2019-03-12T09:31:10.443Z,1000.57
2019-03-12T09:32:10.431Z,1000.58
2019-03-12T09:33:10.419Z,1000.57
2019-03-12T09:34:10.413Z,1000.56
2019-03-12T09:35:10.427Z,1000.51
2019-03-12T09:36:10.387Z,1000.48
2019-03-12T09:37:10.398Z,1000.43
2019-03-12T09:38:10.367Z,1000.40
2019-03-12T09:39:10.365Z,1000.36
2019-03-12T09:40:10.344Z,1000.33
2019-03-12T09:41:10.352Z,1000.32
2019-03-12T09:42:10.320Z,1000.31
2019-03-12T09:43:10.309Z,1000.24
2019-03-12T09:44:10.298Z,1000.17
2019-03-12T09:45:10.287Z,1000.18
2019-03-12T09:46:10.295Z,1000.18
2019-03-12T09:47:10.263Z,1000.18
2019-03-12T09:48:10.253Z,1000.12
2019-03-12T09:49:10.241Z,1000.10
2019-03-12T09:50:10.231Z,1000.11
2019-03-12T09:51:10.240Z,1000.08
2019-03-12T09:52:10.208Z,1000.04
2019-03-12T09:53:10.198Z,999.96
2019-03-12T09:54:10.186Z,999.93
2019-03-12T09:55:10.175Z,999.99
2019-03-12T09:56:10.185Z,999.89
2019-03-12T09:57:10.152Z,999.87
2019-03-12T09:58:10.143Z,999.86
2019-03-12T09:59:10.130Z,999.84
2019-03-12T10:00:16.133Z,999.82
2019-03-12T10:01:11.127Z,999.84
2019-03-12T10:02:10.096Z,999.83
2019-03-12T10:03:10.085Z,999.82
2019-03-12T10:04:10.106Z,999.86
2019-03-12T10:05:10.063Z,999.84
2019-03-12T10:06:10.072Z,999.78
2019-03-12T10:07:10.040Z,999.79
2019-03-12T10:08:10.029Z,999.77
2019-03-12T10:09:10.019Z,999.72
2019-03-12T10:10:10.007Z,999.73
2019-03-12T10:11:10.024Z,999.67
2019-03-12T10:12:09.984Z,999.51
2019-03-12T10:13:09.973Z,999.58
2019-03-12T10:14:09.962Z,999.58
2019-03-12T10:15:09.951Z,999.45
2019-03-12T10:16:09.960Z,999.44
2019-03-12T10:17:09.929Z,999.47
2019-03-12T10:18:09.918Z,999.44
2019-03-12T10:19:09.907Z,999.43
2019-03-12T10:20:09.896Z,999.39
2019-03-12T10:21:09.912Z,999.39
2019-03-12T10:22:09.874Z,999.28
2019-03-12T10:23:09.862Z,999.31
2019-03-12T10:24:09.852Z,999.31
2019-03-12T10:25:09.841Z,999.30
2019-03-12T10:26:09.857Z,999.25
2019-03-12T10:27:09.817Z,999.22
2019-03-12T10:28:09.807Z,999.22
2019-03-12T10:29:09.795Z,999.16
2019-03-12T10:30:09.784Z,999.18
2019-03-12T10:31:09.836Z,999.16
2019-03-12T10:32:09.769Z,999.13
2019-03-12T10:33:09.751Z,999.22
2019-03-12T10:34:11.183Z,999.04
2019-03-12T10:35:09.728Z,999.10
2019-03-12T10:36:09.768Z,999.02
2019-03-12T10:37:12.530Z,998.97
2019-03-12T10:38:09.718Z,998.87
2019-03-12T10:39:09.692Z,998.86
2019-03-12T10:40:09.672Z,998.84
2019-03-12T10:41:09.747Z,998.82
2019-03-12T10:42:09.671Z,998.80
2019-03-12T10:43:09.642Z,998.81
2019-03-12T10:44:09.630Z,998.73
2019-03-12T10:45:09.617Z,998.77
2019-03-12T10:46:09.609Z,998.77
2019-03-12T10:47:09.615Z,998.70
2019-03-12T10:48:09.584Z,998.74
2019-03-12T10:49:09.573Z,998.72
2019-03-12T10:50:09.569Z,998.56
2019-03-12T10:51:12.816Z,998.60
2019-03-12T10:52:09.561Z,998.51
2019-03-12T10:53:09.533Z,998.46
2019-03-12T10:54:09.515Z,998.34
2019-03-12T10:55:13.550Z,998.49
2019-03-12T10:56:09.494Z,998.45
2019-03-12T10:57:09.504Z,998.31
2019-03-12T10:58:09.472Z,998.35
2019-03-12T10:59:09.549Z,998.34
2019-03-12T11:00:09.450Z,998.24
2019-03-12T11:01:09.439Z,998.35
2019-03-12T11:02:09.448Z,998.27
2019-03-12T11:03:09.438Z,998.21
2019-03-12T11:04:09.407Z,998.17
2019-03-12T11:05:09.394Z,998.11
2019-03-12T11:06:09.383Z,998.02
2019-03-12T11:07:16.573Z,998.08
2019-03-12T11:08:10.359Z,998.07
2019-03-12T11:09:09.349Z,998.04
2019-03-12T11:10:09.361Z,998.00
2019-03-12T11:11:09.330Z,997.98
2019-03-12T11:12:09.318Z,997.95
2019-03-12T11:13:09.340Z,997.91
2019-03-12T11:14:09.294Z,997.85
2019-03-12T11:15:09.281Z,997.87
2019-03-12T11:16:09.270Z,997.85
2019-03-12T11:17:09.260Z,997.86
2019-03-12T11:18:09.270Z,997.88
2019-03-12T11:19:09.239Z,997.85
2019-03-12T11:20:09.227Z,997.85
2019-03-12T11:21:09.220Z,997.92
2019-03-12T11:22:09.206Z,997.86
2019-03-12T11:23:09.277Z,997.89
2019-03-12T11:24:09.197Z,997.79
2019-03-12T11:25:09.173Z,997.85
2019-03-12T11:26:09.158Z,997.75
2019-03-12T11:27:09.147Z,997.81
2019-03-12T11:28:09.158Z,997.74
2019-03-12T11:29:09.126Z,997.76
2019-03-12T11:30:09.117Z,997.70
2019-03-12T11:31:09.105Z,997.67
2019-03-12T11:32:09.094Z,997.64
2019-03-12T11:33:12.392Z,997.62
2019-03-12T11:34:09.070Z,997.57
2019-03-12T11:35:09.063Z,997.52
2019-03-12T11:36:09.047Z,997.53
2019-03-12T11:37:09.037Z,997.55
2019-03-12T11:38:09.075Z,997.48
2019-03-12T11:39:09.119Z,997.47
2019-03-12T11:40:09.003Z,997.49
2019-03-12T11:41:09.035Z,997.43
2019-03-12T11:42:09.078Z,997.42
2019-03-12T11:43:09.079Z,997.40
2019-03-12T11:44:08.977Z,997.43
2019-03-12T11:45:15.341Z,997.31
2019-03-12T11:46:09.957Z,997.31
2019-03-12T11:47:08.924Z,997.35
2019-03-12T11:48:08.967Z,997.34
2019-03-12T11:49:08.903Z,997.42
2019-03-12T11:50:08.913Z,997.33
2019-03-12T11:51:08.885Z,997.32
2019-03-12T11:52:08.882Z,997.36
2019-03-12T11:53:08.879Z,997.27
2019-03-12T11:54:08.851Z,997.22
2019-03-12T11:55:08.835Z,997.24
2019-03-12T11:56:08.838Z,997.25
2019-03-12T11:57:08.843Z,997.16
2019-03-12T11:58:08.824Z,997.10
2019-03-12T11:59:08.798Z,997.08
2019-03-12T12:00:08.785Z,997.00
2019-03-12T12:01:08.807Z,996.92
2019-03-12T12:02:08.757Z,996.91
2019-03-12T12:03:08.746Z,996.89
2019-03-12T12:04:08.755Z,996.89
2019-03-12T12:05:08.725Z,996.79
2019-03-12T12:06:08.737Z,996.73
2019-03-12T12:07:08.744Z,996.82
2019-03-12T12:08:08.718Z,996.75
2019-03-12T12:09:08.734Z,996.69